Time;durP1;ratioP1;P1;durP2;ratioP2;P2;SDS_P1;SDS_P2;PMS_P1;PMS_P2;Temp;Humidity;BMP_temperature;BMP_pressure;BME280_temperature;BME280_humidity;BME280_pressure;Samples;Min_cycle;Max_cycle;Signal;HPM_P1;HPM_P2
2022/03/06 00:00:52;;;;;;;63.10;39.40;;;;;;;-2.20;81.37;97129.16;107571;1273;38647;-73
2022/03/06 00:03:23;;;;;;;60.80;38.60;;;;;;;-2.24;81.58;97125.61;107607;1273;29388;-74
2022/03/06 00:05:54;;;;;;;59.00;37.10;;;;;;;-2.23;81.46;97123.66;107614;1273;32324;-74
2022/03/06 00:08:25;;;;;;;58.90;38.50;;;;;;;-2.20;81.40;97122.77;107618;1273;34844;-74
2022/03/06 00:10:57;;;;;;;62.10;36.20;;;;;;;-2.18;81.48;97117.92;107619;1273;34207;-74
2022/03/06 00:13:28;;;;;;;59.60;37.60;;;;;;;-2.19;81.48;97116.90;107603;1272;34487;-74
2022/03/06 00:15:59;;;;;;;58.60;36.90;;;;;;;-2.21;81.67;97113.69;107618;1271;33010;-74
2022/03/06 00:18:30;;;;;;;58.60;38.20;;;;;;;-2.21;81.85;97117.26;107603;1273;29800;-74
2022/03/06 00:21:01;;;;;;;57.00;35.70;;;;;;;-2.17;81.56;97117.88;107583;1273;39797;-74
2022/03/06 00:23:32;;;;;;;63.80;39.00;;;;;;;-2.14;81.77;97116.42;107574;1273;40452;-74
2022/03/06 00:26:03;;;;;;;58.50;37.00;;;;;;;-2.11;81.72;97115.39;107601;1271;37279;-74
2022/03/06 00:28:34;;;;;;;56.20;37.90;;;;;;;-2.09;81.73;97110.85;107607;1272;43277;-74
2022/03/06 00:31:05;;;;;;;64.80;39.20;;;;;;;-2.13;81.83;97109.16;107565;1272;43464;-74
2022/03/06 00:33:37;;;;;;;65.80;40.40;;;;;;;-2.12;81.97;97114.13;107560;1273;30097;-74
2022/03/06 00:36:08;;;;;;;63.80;39.00;;;;;;;-2.10;81.72;97113.48;107580;1273;38783;-74
2022/03/06 00:38:39;;;;;;;62.70;38.90;;;;;;;-2.07;81.81;97112.91;107652;1271;38289;-74
2022/03/06 00:41:11;;;;;;;56.10;36.70;;;;;;;-2.06;81.87;97110.80;107684;1273;33519;-73
2022/03/06 00:43:42;;;;;;;62.10;38.20;;;;;;;-2.07;81.63;97110.23;107635;1271;40985;-74
2022/03/06 00:46:13;;;;;;;60.70;39.60;;;;;;;-2.13;81.32;97106.60;107654;1273;37069;-74
2022/03/06 00:48:44;;;;;;;61.70;39.30;;;;;;;-2.19;81.40;97106.48;107572;1273;32906;-74
2022/03/06 00:51:16;;;;;;;57.70;37.70;;;;;;;-2.24;81.49;97108.66;107554;1271;42175;-74
2022/03/06 00:53:47;;;;;;;64.20;38.90;;;;;;;-2.25;81.58;97103.55;107590;1273;51297;-74
2022/03/06 00:56:18;;;;;;;56.50;38.00;;;;;;;-2.24;81.73;97103.33;107560;1273;41343;-74
2022/03/06 00:58:49;;;;;;;53.90;36.80;;;;;;;-2.24;81.93;97101.40;107473;1274;45285;-74
2022/03/06 01:01:20;;;;;;;55.00;33.80;;;;;;;-2.22;82.10;97101.79;107583;1273;43758;-74
2022/03/06 01:03:51;;;;;;;55.00;37.20;;;;;;;-2.23;82.11;97094.33;107582;1273;42209;-74
2022/03/06 01:06:22;;;;;;;60.60;39.00;;;;;;;-2.30;82.22;97096.58;107561;1271;45878;-73
2022/03/06 01:08:53;;;;;;;59.80;36.70;;;;;;;-2.32;82.28;97096.64;107564;1271;42632;-74
2022/03/06 01:11:24;;;;;;;55.00;36.10;;;;;;;-2.31;82.27;97094.81;107638;1273;31577;-74
2022/03/06 01:13:54;;;;;;;58.70;38.20;;;;;;;-2.29;82.38;97094.27;107618;1272;33662;-74
2022/03/06 01:16:25;;;;;;;63.50;38.80;;;;;;;-2.27;82.39;97097.20;107549;1272;42363;-74
2022/03/06 01:18:56;;;;;;;62.60;38.80;;;;;;;-2.23;82.36;97096.77;107577;1273;44721;-73
2022/03/06 01:21:27;;;;;;;59.20;38.00;;;;;;;-2.20;82.50;97098.77;107572;1273;35973;-74
2022/03/06 01:23:58;;;;;;;60.40;38.20;;;;;;;-2.16;82.38;97099.35;107567;1273;38160;-74
2022/03/06 01:26:29;;;;;;;58.50;38.30;;;;;;;-2.14;82.32;97096.73;107596;1273;33589;-73
2022/03/06 01:29:00;;;;;;;58.80;38.50;;;;;;;-2.13;82.44;97094.77;107560;1273;56649;-73
2022/03/06 01:31:31;;;;;;;65.30;40.90;;;;;;;-2.11;82.31;97096.69;107607;1273;32786;-73
2022/03/06 01:34:03;;;;;;;60.50;39.90;;;;;;;-2.17;82.13;97101.58;107517;1273;46928;-74
2022/03/06 01:36:34;;;;;;;66.10;41.10;;;;;;;-2.20;82.17;97102.15;107564;1273;33471;-74
2022/03/06 01:39:06;;;;;;;65.90;42.60;;;;;;;-2.19;82.54;97104.23;107566;1273;41039;-74
2022/03/06 01:41:37;;;;;;;55.30;39.60;;;;;;;-2.17;82.37;97104.14;107619;1273;40851;-74
2022/03/06 01:44:14;;;;;;;59.70;39.10;;;;;;;-2.14;82.41;97100.20;107593;1273;43300;-74
2022/03/06 01:46:52;;;;;;;61.90;40.10;;;;;;;-2.14;82.54;97096.84;107620;1273;33781;-74
2022/03/06 01:49:23;;;;;;;67.90;41.30;;;;;;;-2.14;82.39;97095.68;107573;1273;35887;-74
2022/03/06 01:51:54;;;;;;;71.00;44.40;;;;;;;-2.22;82.33;97095.06;107595;1272;33363;-74
2022/03/06 01:54:25;;;;;;;69.20;43.10;;;;;;;-2.27;82.48;97096.03;107626;1273;29554;-73
2022/03/06 01:56:55;;;;;;;63.90;42.20;;;;;;;-2.26;82.45;97093.02;107602;1272;36723;-74
2022/03/06 01:59:27;;;;;;;60.30;37.80;;;;;;;-2.24;82.48;97091.73;107597;1272;30386;-74
2022/03/06 02:01:58;;;;;;;61.00;38.10;;;;;;;-2.25;82.59;97096.83;107607;1272;32061;-74
2022/03/06 02:04:29;;;;;;;58.10;38.00;;;;;;;-2.29;82.48;97096.46;107590;1272;40148;-74
2022/03/06 02:07:00;;;;;;;58.80;39.20;;;;;;;-2.30;82.62;97092.30;107403;1272;262427;-74
2022/03/06 02:09:31;;;;;;;61.70;40.10;;;;;;;-2.29;82.76;97095.86;107529;1273;45649;-74
2022/03/06 02:14:51;;;;;;;55.80;38.10;;;;;;;-2.24;82.87;97099.04;107591;1273;41526;-74
2022/03/06 02:17:25;;;;;;;62.90;37.80;;;;;;;-2.24;82.69;97096.05;107569;1273;46707;-74
2022/03/06 02:19:58;;;;;;;63.20;38.60;;;;;;;-2.26;82.81;97098.48;107634;1272;27828;-74
2022/03/06 02:22:30;;;;;;;58.70;38.60;;;;;;;-2.27;82.83;97094.44;107604;1273;41745;-73
2022/03/06 02:25:05;;;;;;;61.00;36.60;;;;;;;-2.29;82.95;97090.23;107643;1273;30804;-74
2022/03/06 02:27:36;;;;;;;57.30;37.40;;;;;;;-2.33;82.89;97086.45;107565;1272;42203;-74
2022/03/06 02:30:10;;;;;;;62.50;38.60;;;;;;;-2.33;82.94;97084.05;107612;1273;38477;-74
2022/03/06 02:32:44;;;;;;;61.80;37.10;;;;;;;-2.33;82.99;97083.05;107627;1273;30602;-74
2022/03/06 02:35:16;;;;;;;60.60;38.10;;;;;;;-2.34;82.92;97082.23;107572;1273;41620;-74
2022/03/06 02:37:47;;;;;;;56.70;38.60;;;;;;;-2.34;83.02;97080.36;107599;1273;32037;-74
2022/03/06 02:40:20;;;;;;;60.90;37.30;;;;;;;-2.33;83.08;97079.25;107533;1273;45116;-74
2022/03/06 02:42:52;;;;;;;58.00;37.60;;;;;;;-2.30;82.98;97077.08;107590;1273;33952;-74
2022/03/06 02:45:25;;;;;;;53.70;37.00;;;;;;;-2.28;83.16;97075.09;107563;1273;38990;-74
2022/03/06 02:47:58;;;;;;;55.90;34.20;;;;;;;-2.29;83.10;97078.25;107582;1273;44257;-74
2022/03/06 02:50:32;;;;;;;47.20;31.00;;;;;;;-2.34;82.76;97075.05;107562;1272;42343;-74
2022/03/06 02:53:06;;;;;;;50.30;33.50;;;;;;;-2.34;82.86;97075.80;107600;1273;29744;-74
2022/03/06 02:55:38;;;;;;;43.80;27.00;;;;;;;-2.32;82.95;97073.11;107589;1273;39256;-74
2022/03/06 02:58:09;;;;;;;38.90;24.70;;;;;;;-2.34;82.76;97071.58;107455;1275;27937;-74
2022/03/06 03:00:41;;;;;;;41.00;24.90;;;;;;;-2.36;82.89;97070.60;107642;1273;28749;-74
2022/03/06 03:03:11;;;;;;;38.60;24.40;;;;;;;-2.34;82.91;97071.86;107642;1273;29715;-74
2022/03/06 03:05:43;;;;;;;38.40;24.90;;;;;;;-2.35;82.80;97074.13;107634;1273;40281;-74
2022/03/06 03:08:14;;;;;;;35.60;22.80;;;;;;;-2.35;82.65;97071.65;107558;1273;42447;-74
2022/03/06 03:10:44;;;;;;;35.90;21.70;;;;;;;-2.35;82.80;97071.24;107592;1273;31888;-74
2022/03/06 03:13:15;;;;;;;40.20;24.30;;;;;;;-2.37;82.63;97069.80;107590;1272;44249;-74
2022/03/06 03:15:46;;;;;;;44.20;28.50;;;;;;;-2.46;82.64;97077.58;107561;1273;39116;-74
2022/03/06 03:18:17;;;;;;;44.00;29.20;;;;;;;-2.52;82.83;97077.73;107589;1273;34023;-74
2022/03/06 03:20:50;;;;;;;41.00;25.90;;;;;;;-2.54;82.92;97074.69;107564;1272;42504;-74
2022/03/06 03:23:21;;;;;;;40.60;23.80;;;;;;;-2.53;82.92;97079.98;107566;1272;40053;-74
2022/03/06 03:25:52;;;;;;;39.30;25.00;;;;;;;-2.53;83.20;97077.98;107612;1273;44950;-73
2022/03/06 03:28:24;;;;;;;34.00;24.00;;;;;;;-2.49;83.30;97082.41;107535;1273;36963;-74
2022/03/06 03:30:55;;;;;;;36.60;23.10;;;;;;;-2.47;83.11;97082.64;107498;1273;37534;-74
2022/03/06 03:33:25;;;;;;;37.60;22.70;;;;;;;-2.46;83.02;97083.56;107545;1273;40533;-73
2022/03/06 03:35:57;;;;;;;34.20;22.80;;;;;;;-2.47;82.97;97083.67;107593;1273;32752;-74
2022/03/06 03:38:28;;;;;;;35.60;23.10;;;;;;;-2.49;83.00;97086.65;107575;1272;55013;-74
2022/03/06 03:41:01;;;;;;;32.50;22.40;;;;;;;-2.49;83.12;97086.14;107572;1273;40710;-74
2022/03/06 03:43:32;;;;;;;38.20;25.10;;;;;;;-2.52;83.18;97089.70;107561;1273;44659;-73
2022/03/06 03:46:03;;;;;;;44.10;25.60;;;;;;;-2.53;83.21;97088.64;107592;1271;31344;-74
2022/03/06 03:48:34;;;;;;;38.30;24.60;;;;;;;-2.50;83.39;97089.64;107539;1273;42502;-74
2022/03/06 03:51:05;;;;;;;39.80;25.90;;;;;;;-2.48;83.18;97090.69;107524;1273;41865;-74
2022/03/06 03:53:36;;;;;;;36.70;22.50;;;;;;;-2.46;83.17;97093.78;107500;1273;47334;-73
2022/03/06 03:56:07;;;;;;;37.70;23.50;;;;;;;-2.45;83.18;97091.04;107596;1273;43285;-74
2022/03/06 03:58:38;;;;;;;35.60;22.70;;;;;;;-2.42;83.30;97087.77;107627;1274;40978;-74
2022/03/06 04:01:09;;;;;;;38.90;23.10;;;;;;;-2.40;83.24;97093.11;107526;1274;43821;-74
2022/03/06 04:03:40;;;;;;;36.10;23.70;;;;;;;-2.37;83.08;97090.20;107619;1273;31829;-74
2022/03/06 04:06:11;;;;;;;37.90;24.50;;;;;;;-2.34;83.28;97098.42;107628;1274;40089;-73
2022/03/06 04:08:42;;;;;;;35.70;23.00;;;;;;;-2.31;83.05;97098.31;107611;1274;42872;-74
2022/03/06 04:11:14;;;;;;;36.50;23.60;;;;;;;-2.29;83.18;97097.90;107459;1274;39205;-74
2022/03/06 04:13:44;;;;;;;32.70;21.70;;;;;;;-2.27;83.11;97101.11;107394;1274;57068;-74
2022/03/06 04:16:15;;;;;;;41.30;23.40;;;;;;;-2.27;83.06;97100.51;107541;1274;40416;-74
2022/03/06 04:18:46;;;;;;;38.10;22.50;;;;;;;-2.26;83.00;97101.98;107570;1273;36548;-74
2022/03/06 04:21:17;;;;;;;38.80;22.60;;;;;;;-2.30;82.83;97102.64;107536;1273;40969;-74
2022/03/06 04:23:48;;;;;;;38.00;23.40;;;;;;;-2.30;83.05;97102.48;107629;1273;42614;-74
2022/03/06 04:26:19;;;;;;;37.30;23.10;;;;;;;-2.26;83.20;97098.13;107608;1271;29465;-74
2022/03/06 04:28:50;;;;;;;36.10;23.10;;;;;;;-2.21;83.17;97099.15;107557;1273;39771;-74
2022/03/06 04:31:21;;;;;;;34.90;23.10;;;;;;;-2.19;82.92;97099.04;107561;1273;35667;-74
2022/03/06 04:33:51;;;;;;;35.10;23.30;;;;;;;-2.18;82.85;97094.29;107595;1273;33898;-74
2022/03/06 04:36:22;;;;;;;33.40;22.70;;;;;;;-2.16;82.94;97094.52;107563;1273;40081;-74
2022/03/06 04:38:53;;;;;;;36.30;22.70;;;;;;;-2.14;82.83;97095.33;107545;1273;46252;-74
2022/03/06 04:41:24;;;;;;;34.70;20.30;;;;;;;-2.18;82.42;97097.14;107578;1273;38860;-74
2022/03/06 04:43:55;;;;;;;30.80;20.40;;;;;;;-2.27;82.20;97095.55;107616;1273;41735;-74
2022/03/06 04:46:26;;;;;;;31.00;20.20;;;;;;;-2.31;82.48;97093.38;107505;1272;96505;-74
2022/03/06 04:48:57;;;;;;;29.70;20.00;;;;;;;-2.32;82.35;97092.64;107580;1273;39669;-74
2022/03/06 04:51:28;;;;;;;32.80;19.90;;;;;;;-2.31;82.49;97090.53;107530;1273;37973;-74
2022/03/06 04:53:59;;;;;;;30.70;18.70;;;;;;;-2.31;82.41;97085.30;107609;1273;33448;-74
2022/03/06 04:56:30;;;;;;;31.10;18.10;;;;;;;-2.31;82.21;97084.86;107532;1273;41911;-74
2022/03/06 04:59:05;;;;;;;29.80;18.20;;;;;;;-2.30;82.21;97086.83;107544;1273;56189;-74
2022/03/06 05:01:36;;;;;;;29.80;17.40;;;;;;;-2.28;82.13;97082.45;107496;1273;43923;-73
2022/03/06 05:04:09;;;;;;;25.60;16.50;;;;;;;-2.26;81.87;97088.61;107587;1273;40012;-73
2022/03/06 05:06:40;;;;;;;25.60;16.50;;;;;;;-2.29;81.74;97094.55;107638;1273;29125;-74
2022/03/06 05:09:10;;;;;;;32.00;18.40;;;;;;;-2.29;81.58;97093.63;107605;1272;45297;-74
2022/03/06 05:11:42;;;;;;;27.30;17.90;;;;;;;-2.28;81.66;97092.88;107613;1273;38160;-73
2022/03/06 05:14:13;;;;;;;31.70;18.50;;;;;;;-2.29;81.57;97093.79;107665;1271;37477;-73
2022/03/06 05:16:44;;;;;;;27.40;18.20;;;;;;;-2.28;81.58;97093.71;107544;1273;44805;-74
2022/03/06 05:19:15;;;;;;;31.40;17.70;;;;;;;-2.28;81.73;97093.16;107614;1273;33977;-74
2022/03/06 05:21:46;;;;;;;27.00;17.40;;;;;;;-2.28;81.57;97096.11;107581;1273;41675;-74
2022/03/06 05:24:17;;;;;;;27.60;18.10;;;;;;;-2.30;81.62;97098.09;107574;1273;44377;-74
2022/03/06 05:26:48;;;;;;;27.90;18.10;;;;;;;-2.32;81.38;97097.36;107495;1274;49383;-74
2022/03/06 05:29:19;;;;;;;25.40;17.10;;;;;;;-2.33;81.37;97097.07;107551;1273;43150;-74
2022/03/06 05:31:50;;;;;;;25.00;17.30;;;;;;;-2.32;81.37;97097.32;107520;1271;42016;-74
2022/03/06 05:34:20;;;;;;;27.30;17.40;;;;;;;-2.30;81.37;97096.22;107617;1272;30178;-74
2022/03/06 05:36:51;;;;;;;25.10;17.10;;;;;;;-2.28;81.28;97096.55;107569;1273;30296;-74
2022/03/06 05:39:22;;;;;;;25.90;16.50;;;;;;;-2.28;81.29;97092.91;107518;1272;39104;-74
2022/03/06 05:41:53;;;;;;;26.80;15.90;;;;;;;-2.28;81.14;97097.02;107416;1273;234023;-74
2022/03/06 05:44:24;;;;;;;22.60;16.00;;;;;;;-2.29;80.97;97098.34;107575;1273;35406;-74
2022/03/06 05:46:55;;;;;;;26.80;15.50;;;;;;;-2.29;80.72;97095.79;107566;1272;32870;-74
2022/03/06 05:49:26;;;;;;;22.20;15.30;;;;;;;-2.31;80.77;97090.94;107585;1272;39763;-74
2022/03/06 05:51:57;;;;;;;21.40;13.20;;;;;;;-2.31;80.65;97095.97;107558;1273;41515;-73
2022/03/06 05:54:28;;;;;;;17.50;10.50;;;;;;;-2.35;80.03;97088.35;107638;1272;29097;-73
2022/03/06 05:56:59;;;;;;;18.80;12.70;;;;;;;-2.45;79.39;97090.60;107604;1273;40471;-74
2022/03/06 05:59:31;;;;;;;16.90;11.00;;;;;;;-2.51;79.41;97092.47;107589;1273;40621;-73
2022/03/06 06:02:02;;;;;;;18.70;12.00;;;;;;;-2.51;79.30;97094.19;107473;1274;44488;-73
2022/03/06 06:04:33;;;;;;;18.60;12.30;;;;;;;-2.51;79.32;97095.95;107516;1273;41495;-74
2022/03/06 06:07:04;;;;;;;19.90;13.00;;;;;;;-2.50;79.32;97099.62;107550;1273;42402;-74
2022/03/06 06:09:35;;;;;;;23.00;14.00;;;;;;;-2.49;79.30;97096.04;107591;1273;45749;-74
2022/03/06 06:12:08;;;;;;;22.90;13.50;;;;;;;-2.49;79.24;97099.67;107596;1273;32906;-74
2022/03/06 06:14:39;;;;;;;21.70;13.70;;;;;;;-2.48;79.27;97097.68;107582;1272;43703;-73
2022/03/06 06:17:10;;;;;;;25.00;14.80;;;;;;;-2.48;79.23;97102.29;107607;1273;40068;-74
2022/03/06 06:19:41;;;;;;;23.10;13.90;;;;;;;-2.48;79.16;97103.43;107606;1273;42745;-73
2022/03/06 06:22:13;;;;;;;20.30;14.30;;;;;;;-2.50;79.03;97107.09;107573;1273;40521;-73
2022/03/06 06:24:43;;;;;;;25.40;14.10;;;;;;;-2.50;79.23;97108.52;107580;1273;32232;-73
2022/03/06 06:27:14;;;;;;;22.30;14.90;;;;;;;-2.51;78.95;97111.52;107596;1273;33582;-74
2022/03/06 06:29:45;;;;;;;21.00;13.50;;;;;;;-2.56;78.88;97109.48;107578;1271;31552;-74
2022/03/06 06:32:16;;;;;;;20.20;13.70;;;;;;;-2.59;78.70;97108.17;107548;1272;31898;-74
2022/03/06 06:34:47;;;;;;;24.30;13.70;;;;;;;-2.59;78.75;97110.58;107589;1273;48073;-73
2022/03/06 06:37:18;;;;;;;17.40;10.00;;;;;;;-2.56;78.56;97111.51;107542;1273;45121;-74
2022/03/06 06:39:49;;;;;;;17.70;10.10;;;;;;;-2.57;77.56;97115.61;107558;1273;38561;-74
2022/03/06 06:42:20;;;;;;;11.90;8.80;;;;;;;-2.60;77.11;97113.44;107583;1273;47259;-74
2022/03/06 06:44:52;;;;;;;14.60;8.40;;;;;;;-2.60;76.40;97117.52;107621;1273;34197;-73
2022/03/06 06:47:23;;;;;;;13.90;9.60;;;;;;;-2.59;76.45;97112.73;107608;1273;31815;-73
2022/03/06 06:49:54;;;;;;;18.50;10.40;;;;;;;-2.55;76.64;97117.73;107609;1273;38783;-73
2022/03/06 06:52:25;;;;;;;19.00;9.10;;;;;;;-2.52;76.68;97117.08;107460;1273;68008;-74
2022/03/06 06:54:57;;;;;;;12.90;8.50;;;;;;;-2.51;76.31;97113.30;107551;1273;36881;-73
2022/03/06 06:57:29;;;;;;;31.00;19.40;;;;;;;-2.51;76.20;97116.35;107554;1273;42862;-74
2022/03/06 07:00:01;;;;;;;18.50;12.40;;;;;;;-2.49;76.34;97115.40;107576;1273;34887;-74
2022/03/06 07:02:32;;;;;;;18.70;11.10;;;;;;;-2.46;75.99;97118.91;107650;1273;32641;-73
2022/03/06 07:05:04;;;;;;;16.30;9.80;;;;;;;-2.46;75.83;97121.14;107559;1272;34206;-74
2022/03/06 07:07:38;;;;;;;19.00;10.80;;;;;;;-2.47;75.62;97121.58;107610;1273;27501;-74
2022/03/06 07:10:11;;;;;;;18.00;10.40;;;;;;;-2.47;75.63;97120.54;107567;1273;48568;-73
2022/03/06 07:12:47;;;;;;;17.40;10.20;;;;;;;-2.47;75.35;97119.49;107641;1273;27760;-74
2022/03/06 07:15:18;;;;;;;15.90;9.80;;;;;;;-2.47;75.12;97120.45;107606;1273;28987;-73
2022/03/06 07:17:49;;;;;;;15.40;9.60;;;;;;;-2.47;74.70;97122.33;107567;1273;39476;-74
2022/03/06 07:20:20;;;;;;;11.70;8.20;;;;;;;-2.46;74.60;97120.78;107597;1273;41076;-74
2022/03/06 07:22:51;;;;;;;11.70;6.90;;;;;;;-2.42;74.30;97118.97;107522;1273;64483;-73
2022/03/06 07:25:23;;;;;;;10.60;6.50;;;;;;;-2.42;74.02;97122.38;107610;1272;38960;-74
2022/03/06 07:27:54;;;;;;;13.20;7.80;;;;;;;-2.44;73.53;97127.07;107615;1273;28667;-74
2022/03/06 07:30:25;;;;;;;12.30;8.10;;;;;;;-2.43;73.58;97125.48;107525;1273;40059;-73
2022/03/06 07:32:56;;;;;;;10.30;6.70;;;;;;;-2.43;73.14;97126.20;107498;1273;29811;-74
2022/03/06 07:35:28;;;;;;;9.10;6.10;;;;;;;-2.45;72.71;97124.79;107526;1270;42707;-74
2022/03/06 07:37:59;;;;;;;10.70;5.40;;;;;;;-2.45;72.40;97125.91;107581;1273;36584;-74
2022/03/06 07:40:30;;;;;;;9.20;5.90;;;;;;;-2.46;71.61;97125.30;107571;1273;46770;-74
2022/03/06 07:43:01;;;;;;;6.80;4.50;;;;;;;-2.47;70.90;97123.16;107573;1273;40578;-74
2022/03/06 07:45:33;;;;;;;7.90;5.40;;;;;;;-2.47;70.37;97122.16;107576;1273;42678;-73
2022/03/06 07:48:04;;;;;;;9.60;6.30;;;;;;;-2.47;70.54;97115.05;107548;1273;43798;-74
2022/03/06 07:50:36;;;;;;;12.70;7.60;;;;;;;-2.43;70.99;97111.73;107634;1273;34297;-74
2022/03/06 07:53:08;;;;;;;16.60;9.90;;;;;;;-2.36;71.57;97108.63;107518;1273;43032;-74
2022/03/06 07:55:39;;;;;;;12.50;8.40;;;;;;;-2.29;71.91;97107.25;107580;1273;33498;-73
2022/03/06 07:58:11;;;;;;;12.00;6.80;;;;;;;-2.25;71.73;97105.46;107606;1273;39574;-73
2022/03/06 08:00:42;;;;;;;11.90;6.60;;;;;;;-2.25;71.37;97104.42;107617;1273;65808;-73
2022/03/06 08:03:13;;;;;;;12.10;6.40;;;;;;;-2.22;71.23;97103.45;107607;1272;31885;-73
2022/03/06 08:05:44;;;;;;;10.60;6.50;;;;;;;-2.18;70.95;97103.44;107650;1273;30087;-73
2022/03/06 08:08:15;;;;;;;10.30;6.20;;;;;;;-2.20;70.60;97101.55;107586;1273;37315;-74
2022/03/06 08:10:46;;;;;;;11.80;7.10;;;;;;;-2.18;70.75;97105.52;107540;1273;43577;-74
2022/03/06 08:13:18;;;;;;;12.40;6.90;;;;;;;-2.16;70.75;97105.86;107577;1273;40825;-73
2022/03/06 08:15:51;;;;;;;9.50;6.00;;;;;;;-2.10;70.82;97103.52;107589;1273;38632;-74
2022/03/06 08:18:23;;;;;;;13.10;6.60;;;;;;;-2.03;70.34;97108.90;107608;1273;39878;-73
2022/03/06 08:20:54;;;;;;;14.40;8.10;;;;;;;-2.04;70.21;97106.90;107599;1273;42634;-73
2022/03/06 08:23:26;;;;;;;11.80;6.40;;;;;;;-1.97;70.49;97105.76;107587;1273;40456;-73
2022/03/06 08:25:59;;;;;;;13.40;7.50;;;;;;;-1.96;70.20;97104.83;107623;1273;28726;-74
2022/03/06 08:28:30;;;;;;;29.30;15.20;;;;;;;-1.87;70.69;97105.13;107591;1273;42985;-74
2022/03/06 08:31:01;;;;;;;24.40;13.90;;;;;;;-1.75;70.81;97100.55;107532;1273;45043;-73
2022/03/06 08:33:34;;;;;;;20.50;12.20;;;;;;;-1.66;70.59;97100.82;107576;1273;38655;-74
2022/03/06 08:36:06;;;;;;;12.90;7.20;;;;;;;-1.59;70.70;97099.58;107577;1270;47902;-73
2022/03/06 08:38:37;;;;;;;12.70;8.70;;;;;;;-1.56;70.23;97099.91;107609;1273;35963;-73
2022/03/06 08:41:08;;;;;;;11.40;6.70;;;;;;;-1.52;70.34;97090.23;107516;1273;46427;-73
2022/03/06 08:43:40;;;;;;;11.60;7.00;;;;;;;-1.51;70.23;97087.89;107564;1270;49786;-73
2022/03/06 08:46:11;;;;;;;12.20;7.10;;;;;;;-1.53;69.95;97085.48;107652;1273;30064;-73
2022/03/06 08:48:42;;;;;;;10.40;6.80;;;;;;;-1.49;70.08;97083.50;107596;1273;42509;-74
2022/03/06 08:51:14;;;;;;;10.90;7.40;;;;;;;-1.43;69.93;97081.85;107606;1273;42109;-73
2022/03/06 08:53:46;;;;;;;11.80;6.90;;;;;;;-1.41;69.91;97079.51;107570;1273;40938;-74
2022/03/06 08:56:17;;;;;;;11.40;6.80;;;;;;;-1.42;69.64;97078.41;107568;1270;47701;-74
2022/03/06 08:58:48;;;;;;;11.30;6.30;;;;;;;-1.42;69.51;97079.13;107605;1273;31749;-73
2022/03/06 09:01:19;;;;;;;9.60;6.10;;;;;;;-1.42;69.31;97076.52;107597;1273;36120;-74
2022/03/06 09:03:50;;;;;;;12.10;6.90;;;;;;;-1.41;69.25;97079.34;107622;1273;47680;-73
2022/03/06 09:06:21;;;;;;;13.30;7.20;;;;;;;-1.43;69.27;97081.48;107643;1273;35468;-74
2022/03/06 09:08:52;;;;;;;15.60;9.80;;;;;;;-1.38;69.41;97079.92;107584;1273;34150;-73
2022/03/06 09:11:23;;;;;;;10.70;6.90;;;;;;;-1.34;68.96;97085.70;107575;1273;28682;-74
2022/03/06 09:13:54;;;;;;;10.40;6.90;;;;;;;-1.40;68.76;97087.77;107577;1272;42316;-73
2022/03/06 09:16:25;;;;;;;12.00;7.20;;;;;;;-1.35;69.23;97087.95;107575;1273;28886;-74
2022/03/06 09:18:56;;;;;;;12.00;8.30;;;;;;;-1.28;69.17;97083.94;107598;1273;33477;-74
2022/03/06 09:21:28;;;;;;;13.30;8.20;;;;;;;-1.25;68.79;97086.48;107590;1273;40990;-74
2022/03/06 09:23:59;;;;;;;13.70;7.20;;;;;;;-1.27;68.65;97085.88;107599;1273;45540;-74
2022/03/06 09:26:31;;;;;;;12.30;7.30;;;;;;;-1.34;68.38;97083.90;107582;1273;37821;-74
2022/03/06 09:29:02;;;;;;;10.90;6.80;;;;;;;-1.32;68.62;97088.83;107578;1271;38682;-74
2022/03/06 09:31:33;;;;;;;10.60;7.70;;;;;;;-1.28;68.69;97087.48;107599;1273;30872;-74
2022/03/06 09:34:06;;;;;;;12.80;7.30;;;;;;;-1.24;68.71;97083.77;107562;1273;44916;-73
2022/03/06 09:36:37;;;;;;;13.50;7.30;;;;;;;-1.23;68.57;97080.34;107587;1273;45107;-73
2022/03/06 09:39:08;;;;;;;12.00;6.20;;;;;;;-1.18;68.56;97076.66;107605;1273;43500;-74
2022/03/06 09:41:41;;;;;;;9.70;7.00;;;;;;;-1.19;68.39;97077.70;107659;1270;33414;-74
2022/03/06 09:44:14;;;;;;;11.90;7.60;;;;;;;-1.16;68.44;97079.04;107657;1273;34879;-74
2022/03/06 09:46:48;;;;;;;20.60;13.10;;;;;;;-1.11;68.16;97078.59;107585;1273;38960;-74
2022/03/06 09:49:19;;;;;;;42.30;18.20;;;;;;;-1.08;68.22;97079.26;107560;1270;68223;-74
2022/03/06 09:51:51;;;;;;;14.00;8.10;;;;;;;-0.98;68.34;97081.45;107564;1272;41855;-74
2022/03/06 09:54:22;;;;;;;10.00;7.90;;;;;;;-0.88;68.30;97079.01;107587;1273;35959;-74
2022/03/06 09:56:54;;;;;;;11.90;7.50;;;;;;;-0.83;67.92;97073.29;107562;1273;32813;-73
2022/03/06 09:59:25;;;;;;;12.80;7.40;;;;;;;-0.81;67.76;97077.93;107592;1273;46955;-73
2022/03/06 10:02:02;;;;;;;11.30;7.90;;;;;;;-0.75;67.60;97079.21;107623;1273;30131;-73
2022/03/06 10:04:35;;;;;;;11.10;7.10;;;;;;;-0.77;67.46;97083.02;107638;1273;34529;-74
2022/03/06 10:07:08;;;;;;;11.60;6.70;;;;;;;-0.74;67.31;97081.70;107628;1272;32620;-73
2022/03/06 10:09:46;;;;;;;13.90;9.10;;;;;;;-0.67;67.47;97078.34;107567;1273;36360;-73
2022/03/06 10:12:23;;;;;;;11.70;7.30;;;;;;;-0.63;67.12;97079.98;107605;1273;35093;-73
2022/03/06 10:14:56;;;;;;;12.80;7.00;;;;;;;-0.61;67.35;97078.06;107726;1272;32800;-73
2022/03/06 10:17:29;;;;;;;9.20;5.90;;;;;;;-0.55;67.33;97080.30;107588;1272;35950;-74
2022/03/06 10:20:02;;;;;;;10.60;6.90;;;;;;;-0.54;67.15;97078.34;107590;1273;45348;-73
2022/03/06 10:22:35;;;;;;;12.40;6.30;;;;;;;-0.54;67.05;97074.97;107631;1273;35116;-74
2022/03/06 10:25:09;;;;;;;10.20;7.00;;;;;;;-0.52;67.06;97075.54;107534;1272;42813;-73
2022/03/06 10:27:51;;;;;;;10.20;6.20;;;;;;;-0.50;66.80;97066.48;107709;1273;32339;-73
2022/03/06 10:30:31;;;;;;;8.70;6.50;;;;;;;-0.60;66.41;97068.21;107558;1273;43248;-74
2022/03/06 10:33:04;;;;;;;11.30;6.60;;;;;;;-0.68;66.66;97067.84;107583;1273;40972;-74
2022/03/06 10:35:38;;;;;;;10.70;7.30;;;;;;;-0.65;66.91;97064.67;107602;1273;35418;-74
2022/03/06 10:38:27;;;;;;;8.10;5.80;;;;;;;-0.57;66.34;97061.77;107667;1273;41323;-73
2022/03/06 10:41:01;;;;;;;9.70;5.80;;;;;;;-0.57;65.98;97056.12;107665;1272;35211;-74
2022/03/06 10:43:34;;;;;;;11.20;6.20;;;;;;;-0.58;65.85;97056.03;107574;1273;39373;-74
2022/03/06 10:46:13;;;;;;;9.00;6.20;;;;;;;-0.54;66.00;97052.58;107642;1272;31926;-73
2022/03/06 10:48:54;;;;;;;17.10;9.10;;;;;;;-0.45;66.27;97051.83;107704;1273;30070;-74
2022/03/06 10:51:27;;;;;;;11.80;8.10;;;;;;;-0.36;66.26;97051.13;107541;1273;38412;-74
2022/03/06 10:53:59;;;;;;;10.10;7.00;;;;;;;-0.34;66.13;97053.17;107542;1273;42309;-74
2022/03/06 10:56:31;;;;;;;11.70;7.00;;;;;;;-0.34;66.02;97048.16;107573;1273;40818;-73
2022/03/06 10:59:06;;;;;;;12.20;6.70;;;;;;;-0.33;65.94;97049.80;107563;1273;47169;-73
2022/03/06 11:01:38;;;;;;;11.40;7.30;;;;;;;-0.32;66.11;97045.71;107498;1273;46504;-74
2022/03/06 11:04:10;;;;;;;13.00;8.30;;;;;;;-0.31;66.26;97040.98;107588;1273;44245;-74
2022/03/06 11:06:43;;;;;;;11.30;7.60;;;;;;;-0.32;65.96;97044.39;107597;1273;41166;-74
2022/03/06 11:09:16;;;;;;;11.40;8.30;;;;;;;-0.33;66.08;97043.27;107621;1273;39899;-74
2022/03/06 11:11:52;;;;;;;14.70;9.30;;;;;;;-0.35;66.09;97042.98;107601;1273;45769;-74
2022/03/06 11:14:24;;;;;;;40.10;20.80;;;;;;;-0.35;66.20;97037.38;107626;1273;41632;-74
2022/03/06 11:16:56;;;;;;;24.30;15.70;;;;;;;-0.32;66.13;97037.58;107589;1272;43558;-74
2022/03/06 11:19:27;;;;;;;15.40;10.10;;;;;;;-0.34;65.97;97037.74;107603;1273;41800;-73
2022/03/06 11:22:09;;;;;;;17.20;11.10;;;;;;;-0.35;65.89;97037.54;107561;1273;97879;-74
2022/03/06 11:24:48;;;;;;;30.90;14.80;;;;;;;-0.36;65.97;97032.02;107645;1273;50723;-74
2022/03/06 11:27:40;;;;;;;22.70;12.40;;;;;;;-0.41;65.59;97027.64;107589;1273;33932;-74
2022/03/06 11:30:20;;;;;;;41.20;22.60;;;;;;;-0.43;65.62;97024.25;107654;1273;39728;-74
2022/03/06 11:33:04;;;;;;;35.30;21.60;;;;;;;-0.40;65.88;97020.91;107710;1273;31929;-74
2022/03/06 11:35:38;;;;;;;18.40;12.00;;;;;;;-0.39;65.73;97019.23;107622;1273;31178;-74